createdAt,value
2018-09-22T00:00:13.809Z,0.00
2018-09-22T00:01:13.789Z,0.00
2018-09-22T00:02:13.786Z,0.00
2018-09-22T00:03:13.787Z,0.00
2018-09-22T00:04:13.772Z,0.00
2018-09-22T00:05:13.785Z,0.00
2018-09-22T00:06:13.781Z,0.00
2018-09-22T00:07:13.779Z,0.00
2018-09-22T00:08:13.752Z,0.00
2018-09-22T00:09:13.776Z,0.00
2018-09-22T00:10:13.741Z,0.00
2018-09-22T00:11:13.737Z,0.00
2018-09-22T00:12:13.754Z,0.00
2018-09-22T00:13:13.740Z,0.00
2018-09-22T00:14:13.737Z,0.00
2018-09-22T00:15:13.736Z,0.00
2018-09-22T00:16:13.715Z,0.00
2018-09-22T00:17:13.713Z,0.00
2018-09-22T00:18:13.721Z,0.00
2018-09-22T00:19:13.706Z,0.00
2018-09-22T00:20:13.710Z,0.00
2018-09-22T00:21:13.700Z,0.00
2018-09-22T00:22:13.697Z,0.00
2018-09-22T00:23:13.689Z,0.00
2018-09-22T00:24:13.687Z,0.00
2018-09-22T00:25:13.678Z,0.00
2018-09-22T00:26:13.677Z,0.00
2018-09-22T00:27:13.686Z,0.00
2018-09-22T00:28:13.650Z,0.00
2018-09-22T00:29:13.655Z,0.00
2018-09-22T00:30:13.664Z,0.00
2018-09-22T00:31:13.633Z,0.00
2018-09-22T00:32:13.667Z,0.00
2018-09-22T00:33:13.639Z,0.00
2018-09-22T00:34:13.644Z,0.00
2018-09-22T00:35:13.624Z,0.00
2018-09-22T00:36:13.629Z,0.00
2018-09-22T00:37:13.608Z,0.00
2018-09-22T00:38:13.616Z,0.00
2018-09-22T00:39:13.614Z,0.00
2018-09-22T00:40:13.598Z,0.00
2018-09-22T00:41:14.444Z,0.00
2018-09-22T00:42:13.597Z,0.00
2018-09-22T00:43:13.591Z,0.00
2018-09-22T00:44:13.576Z,0.00
2018-09-22T00:45:13.585Z,0.00
2018-09-22T00:46:13.582Z,0.00
2018-09-22T00:47:13.559Z,0.00
2018-09-22T00:48:13.567Z,0.00
2018-09-22T00:49:13.547Z,0.00
2018-09-22T00:50:13.564Z,0.00
2018-09-22T00:51:13.580Z,0.00
2018-09-22T00:52:13.553Z,0.00
2018-09-22T00:53:13.555Z,0.00
2018-09-22T00:54:13.544Z,0.00
2018-09-22T00:55:13.537Z,0.00
2018-09-22T00:56:13.524Z,0.00
2018-09-22T00:57:13.530Z,0.00
2018-09-22T00:58:13.510Z,0.00
2018-09-22T00:59:13.522Z,0.00
2018-09-22T01:00:13.532Z,0.00
2018-09-22T01:01:13.537Z,0.00
2018-09-22T01:02:13.507Z,0.00
2018-09-22T01:03:13.501Z,0.00
2018-09-22T01:04:13.497Z,0.00
2018-09-22T01:05:13.493Z,0.00
2018-09-22T01:06:13.500Z,0.00
2018-09-22T01:07:13.507Z,0.00
2018-09-22T01:08:13.487Z,0.00
2018-09-22T01:09:13.476Z,0.00
2018-09-22T01:10:13.451Z,0.00
2018-09-22T01:11:13.454Z,0.00
2018-09-22T01:12:13.446Z,0.00
2018-09-22T01:13:13.429Z,0.00
2018-09-22T01:14:13.440Z,0.00
2018-09-22T01:15:13.431Z,0.00
2018-09-22T01:16:13.431Z,0.00
2018-09-22T01:17:13.423Z,0.00
2018-09-22T01:18:13.425Z,0.00
2018-09-22T01:19:13.445Z,0.00
2018-09-22T01:20:13.422Z,0.00
2018-09-22T01:21:13.417Z,0.00
2018-09-22T01:22:13.415Z,0.00
2018-09-22T01:23:13.397Z,0.00
2018-09-22T01:24:13.381Z,0.00
2018-09-22T01:25:13.382Z,0.00
2018-09-22T01:26:13.394Z,0.00
2018-09-22T01:27:13.374Z,0.00
2018-09-22T01:28:13.371Z,0.00
2018-09-22T01:29:13.377Z,0.00
2018-09-22T01:30:13.367Z,0.00
2018-09-22T01:31:13.965Z,0.00
2018-09-22T01:32:13.360Z,0.00
2018-09-22T01:33:13.334Z,0.00
2018-09-22T01:34:13.342Z,0.00
2018-09-22T01:35:13.333Z,0.00
2018-09-22T01:36:13.344Z,0.00
2018-09-22T01:37:13.327Z,0.00
2018-09-22T01:38:13.321Z,0.00
2018-09-22T01:39:13.323Z,0.00
2018-09-22T01:40:13.324Z,0.00
2018-09-22T01:41:13.313Z,0.00
2018-09-22T01:42:13.294Z,0.00
2018-09-22T01:43:13.284Z,0.00
2018-09-22T01:44:13.287Z,0.00
2018-09-22T01:45:13.282Z,0.00
2018-09-22T01:46:13.282Z,0.00
2018-09-22T01:47:13.291Z,0.00
2018-09-22T01:48:13.276Z,0.00
2018-09-22T01:49:13.962Z,0.00
2018-09-22T01:50:13.268Z,0.00
2018-09-22T01:51:13.258Z,0.00
2018-09-22T01:52:13.265Z,0.00
2018-09-22T01:53:13.249Z,0.00
2018-09-22T01:54:13.239Z,0.00
2018-09-22T01:55:13.246Z,0.00
2018-09-22T01:56:13.222Z,0.00
2018-09-22T01:57:13.232Z,0.00
2018-09-22T01:58:13.232Z,0.00
2018-09-22T01:59:13.236Z,0.00
2018-09-22T02:00:13.224Z,0.00
2018-09-22T02:01:13.231Z,0.00
2018-09-22T02:02:13.201Z,0.00
2018-09-22T02:03:13.194Z,0.00
2018-09-22T02:04:13.185Z,0.00
2018-09-22T02:05:13.187Z,0.00
2018-09-22T02:06:13.176Z,0.00
2018-09-22T02:07:13.160Z,0.00
2018-09-22T02:08:13.179Z,0.00
2018-09-22T02:09:13.174Z,0.00
2018-09-22T02:10:13.149Z,0.00
2018-09-22T02:11:13.157Z,0.00
2018-09-22T02:12:13.152Z,0.00
2018-09-22T02:13:13.135Z,0.00
2018-09-22T02:14:13.153Z,0.00
2018-09-22T02:15:13.168Z,0.00
2018-09-22T02:16:13.138Z,0.00
2018-09-22T02:17:13.135Z,0.00
2018-09-22T02:18:13.122Z,0.00
2018-09-22T02:19:13.111Z,0.00
2018-09-22T02:20:13.102Z,0.00
2018-09-22T02:21:13.989Z,0.00
2018-09-22T02:22:13.101Z,0.00
2018-09-22T02:23:13.110Z,0.00
2018-09-22T02:24:13.091Z,0.00
2018-09-22T02:25:13.089Z,0.00
2018-09-22T02:26:13.079Z,0.00
2018-09-22T02:27:13.081Z,0.00
2018-09-22T02:28:13.060Z,0.00
2018-09-22T02:29:13.055Z,0.00
2018-09-22T02:30:13.052Z,0.00
2018-09-22T02:31:13.059Z,0.00
2018-09-22T02:32:13.061Z,0.00
2018-09-22T02:33:13.041Z,0.00
2018-09-22T02:34:13.047Z,0.00
2018-09-22T02:35:13.017Z,0.00
2018-09-22T02:36:13.023Z,0.00
2018-09-22T02:37:13.017Z,0.00
2018-09-22T02:38:13.011Z,0.00
2018-09-22T02:39:13.024Z,0.00
2018-09-22T02:40:13.003Z,0.00
2018-09-22T02:41:13.005Z,0.00
2018-09-22T02:42:12.999Z,0.00
2018-09-22T02:43:12.989Z,0.00
2018-09-22T02:44:13.009Z,0.00
2018-09-22T02:45:12.973Z,0.00
2018-09-22T02:46:12.970Z,0.00
2018-09-22T02:47:12.960Z,0.00
2018-09-22T02:48:12.952Z,0.00
2018-09-22T02:49:12.960Z,0.00
2018-09-22T02:50:12.949Z,0.00
2018-09-22T02:51:12.943Z,0.00
2018-09-22T02:52:12.934Z,0.00
2018-09-22T02:53:12.946Z,0.00
2018-09-22T02:54:12.938Z,0.00
2018-09-22T02:55:12.934Z,0.00
2018-09-22T02:56:12.928Z,0.00
2018-09-22T02:57:12.933Z,0.00
2018-09-22T02:58:12.899Z,0.00
2018-09-22T02:59:12.904Z,0.00
2018-09-22T03:00:12.894Z,0.00
2018-09-22T03:01:12.891Z,0.00
2018-09-22T03:02:12.889Z,0.00
2018-09-22T03:03:12.874Z,0.00
2018-09-22T03:04:12.878Z,0.00
2018-09-22T03:05:12.878Z,0.00
2018-09-22T03:06:12.866Z,0.00
2018-09-22T03:07:12.861Z,0.00
2018-09-22T03:08:12.862Z,0.00
2018-09-22T03:09:12.857Z,0.00
2018-09-22T03:10:12.843Z,0.00
2018-09-22T03:11:12.846Z,0.00
2018-09-22T03:12:12.830Z,0.00
2018-09-22T03:13:12.820Z,0.00
2018-09-22T03:14:12.842Z,0.00
2018-09-22T03:15:12.846Z,0.00
2018-09-22T03:16:13.513Z,0.00
2018-09-22T03:17:12.816Z,0.00
2018-09-22T03:18:12.824Z,0.00
2018-09-22T03:19:12.804Z,0.00
2018-09-22T03:20:12.797Z,0.00
2018-09-22T03:21:13.529Z,0.00
2018-09-22T03:22:12.787Z,0.00
2018-09-22T03:23:12.785Z,0.00
2018-09-22T03:24:12.785Z,0.00
2018-09-22T03:25:12.769Z,0.00
2018-09-22T03:26:12.768Z,0.00
2018-09-22T03:27:12.749Z,0.00
2018-09-22T03:28:12.735Z,0.00
2018-09-22T03:29:12.752Z,0.00
2018-09-22T03:30:12.728Z,0.00
2018-09-22T03:31:12.731Z,0.00
2018-09-22T03:32:12.743Z,0.00
2018-09-22T03:33:12.727Z,0.00
2018-09-22T03:34:12.734Z,0.00
2018-09-22T03:35:12.717Z,0.00
2018-09-22T03:36:12.698Z,0.00
2018-09-22T03:37:12.701Z,0.00
2018-09-22T03:38:12.680Z,0.00
2018-09-22T03:39:12.704Z,0.00
2018-09-22T03:40:12.676Z,0.00
2018-09-22T03:41:12.674Z,0.00
2018-09-22T03:42:12.674Z,0.00
2018-09-22T03:43:12.659Z,0.00
2018-09-22T03:44:12.663Z,0.00
2018-09-22T03:45:12.665Z,0.00
2018-09-22T03:46:12.644Z,0.00
2018-09-22T03:47:12.651Z,0.00
2018-09-22T03:48:12.637Z,0.00
2018-09-22T03:49:12.646Z,0.00
2018-09-22T03:50:12.646Z,0.00
2018-09-22T03:51:12.620Z,0.00
2018-09-22T03:52:12.609Z,0.00
2018-09-22T03:53:12.610Z,0.00
2018-09-22T03:54:12.598Z,0.00
2018-09-22T03:55:12.601Z,0.00
2018-09-22T03:56:12.589Z,0.00
2018-09-22T03:57:12.601Z,0.00
2018-09-22T03:58:12.586Z,0.00
2018-09-22T03:59:12.589Z,0.00
2018-09-22T04:00:12.587Z,0.00
2018-09-22T04:01:12.576Z,0.00
2018-09-22T04:02:12.556Z,0.00
2018-09-22T04:03:12.568Z,0.00
2018-09-22T04:04:12.550Z,0.00
2018-09-22T04:05:12.557Z,0.00
2018-09-22T04:06:12.551Z,0.00
2018-09-22T04:07:12.545Z,0.00
2018-09-22T04:08:12.537Z,0.00
2018-09-22T04:09:12.517Z,0.00
2018-09-22T04:10:12.516Z,0.00
2018-09-22T04:11:12.524Z,0.00
2018-09-22T04:12:12.514Z,0.00
2018-09-22T04:13:12.496Z,0.00
2018-09-22T04:14:12.521Z,0.00
2018-09-22T04:15:12.502Z,0.00
2018-09-22T04:16:12.482Z,0.00
2018-09-22T04:17:12.493Z,0.00
2018-09-22T04:18:12.476Z,0.00
2018-09-22T04:19:12.477Z,0.00
2018-09-22T04:20:12.469Z,0.00
2018-09-22T04:21:12.464Z,0.00
2018-09-22T04:22:12.461Z,0.00
2018-09-22T04:23:12.461Z,0.00
2018-09-22T04:24:12.460Z,0.00
2018-09-22T04:25:12.439Z,0.00
2018-09-22T04:26:12.432Z,0.00
2018-09-22T04:27:13.059Z,0.00
2018-09-22T04:28:13.051Z,0.00
2018-09-22T04:29:12.432Z,0.00
2018-09-22T04:30:12.423Z,0.00
2018-09-22T04:31:12.417Z,0.00
2018-09-22T04:32:12.415Z,0.00
2018-09-22T04:33:12.433Z,0.00
2018-09-22T04:34:12.380Z,0.00
2018-09-22T04:35:12.387Z,0.00
2018-09-22T04:36:12.378Z,0.00
2018-09-22T04:37:12.385Z,0.00
2018-09-22T04:38:12.381Z,0.00
2018-09-22T04:39:12.361Z,0.00
2018-09-22T04:40:12.351Z,0.00
2018-09-22T04:41:12.348Z,0.00
2018-09-22T04:42:12.349Z,0.00
2018-09-22T04:43:12.337Z,0.00
2018-09-22T04:44:12.327Z,0.00
2018-09-22T04:45:12.334Z,0.00
2018-09-22T04:46:12.331Z,0.00
2018-09-22T04:47:12.334Z,0.00
2018-09-22T04:48:12.305Z,0.00
2018-09-22T04:49:12.301Z,0.00
2018-09-22T04:50:12.305Z,0.00
2018-09-22T04:51:12.304Z,0.00
2018-09-22T04:52:12.296Z,4.00
2018-09-22T04:53:12.287Z,4.00
2018-09-22T04:54:12.277Z,0.00
2018-09-22T04:55:12.270Z,4.00
2018-09-22T04:56:12.264Z,4.00
2018-09-22T04:57:12.272Z,4.00
2018-09-22T04:58:12.258Z,4.00
2018-09-22T04:59:12.264Z,4.00
2018-09-22T05:00:12.259Z,8.00
2018-09-22T05:01:12.253Z,8.00
2018-09-22T05:02:12.240Z,8.00
2018-09-22T05:03:12.222Z,12.00
2018-09-22T05:04:12.231Z,12.00
2018-09-22T05:05:12.238Z,16.00
2018-09-22T05:06:12.209Z,20.00
2018-09-22T05:07:12.225Z,20.00
2018-09-22T05:08:12.205Z,24.00
2018-09-22T05:09:12.203Z,32.00
2018-09-22T05:10:12.191Z,36.00
2018-09-22T05:11:12.204Z,36.00
2018-09-22T05:12:12.198Z,44.00
2018-09-22T05:13:12.190Z,44.00
2018-09-22T05:14:12.177Z,52.00
2018-09-22T05:15:12.179Z,56.00
2018-09-22T05:16:12.169Z,60.00
2018-09-22T05:17:12.213Z,64.00
2018-09-22T05:18:12.168Z,64.00
2018-09-22T05:19:12.144Z,68.00
2018-09-22T05:20:12.146Z,72.00
2018-09-22T05:21:12.136Z,72.00
2018-09-22T05:22:12.128Z,80.00
2018-09-22T05:23:12.139Z,84.00
2018-09-22T05:24:12.121Z,88.00
2018-09-22T05:25:12.119Z,100.00
2018-09-22T05:26:12.110Z,104.00
2018-09-22T05:27:12.094Z,116.00
2018-09-22T05:28:12.103Z,128.00
2018-09-22T05:29:12.088Z,140.00
2018-09-22T05:30:12.106Z,148.00
2018-09-22T05:31:12.077Z,168.00
2018-09-22T05:32:12.076Z,188.00
2018-09-22T05:33:12.068Z,216.00
2018-09-22T05:34:12.080Z,248.00
2018-09-22T05:35:12.063Z,268.00
2018-09-22T05:36:12.055Z,284.00
2018-09-22T05:37:12.055Z,296.00
2018-09-22T05:38:12.058Z,304.00
2018-09-22T05:39:12.040Z,316.00
2018-09-22T05:40:12.047Z,336.00
2018-09-22T05:41:12.033Z,356.00
2018-09-22T05:42:12.035Z,364.00
2018-09-22T05:43:12.017Z,364.00
2018-09-22T05:44:12.020Z,368.00
2018-09-22T05:45:12.031Z,380.00
2018-09-22T05:46:12.005Z,408.00
2018-09-22T05:47:11.996Z,444.00
2018-09-22T05:48:11.989Z,468.00
2018-09-22T05:49:12.013Z,492.00
2018-09-22T05:50:12.017Z,524.00
2018-09-22T05:51:11.994Z,564.00
2018-09-22T05:52:11.970Z,600.00
2018-09-22T05:53:11.976Z,620.00
2018-09-22T05:54:11.954Z,620.00
2018-09-22T05:55:11.969Z,640.00
2018-09-22T05:56:11.967Z,668.00
2018-09-22T05:57:11.949Z,700.00
2018-09-22T05:58:11.997Z,732.00
2018-09-22T05:59:11.936Z,744.00
2018-09-22T06:00:11.926Z,716.00
2018-09-22T06:01:11.937Z,664.00
2018-09-22T06:02:11.932Z,632.00
2018-09-22T06:03:11.924Z,620.00
2018-09-22T06:04:11.923Z,624.00
2018-09-22T06:05:11.902Z,636.00
2018-09-22T06:06:11.903Z,668.00
2018-09-22T06:07:11.891Z,712.00
2018-09-22T06:08:11.896Z,760.00
2018-09-22T06:09:11.916Z,776.00
2018-09-22T06:10:11.884Z,792.00
2018-09-22T06:11:11.860Z,828.00
2018-09-22T06:12:11.878Z,864.00
2018-09-22T06:13:11.859Z,904.00
2018-09-22T06:14:11.867Z,952.00
2018-09-22T06:15:11.851Z,992.00
2018-09-22T06:16:11.847Z,1012.00
2018-09-22T06:17:11.841Z,1056.00
2018-09-22T06:18:11.836Z,1096.00
2018-09-22T06:19:11.846Z,1116.00
2018-09-22T06:20:11.832Z,1136.00
2018-09-22T06:21:11.833Z,1192.00
2018-09-22T06:22:11.847Z,1260.00
2018-09-22T06:23:11.888Z,1348.00
2018-09-22T06:24:11.821Z,1420.00
2018-09-22T06:25:11.820Z,1480.00
2018-09-22T06:26:11.811Z,1512.00
2018-09-22T06:27:11.791Z,1536.00
2018-09-22T06:28:11.792Z,1560.00
2018-09-22T06:29:11.800Z,1592.00
2018-09-22T06:30:11.795Z,1624.00
2018-09-22T06:31:11.789Z,1648.00
2018-09-22T06:32:11.775Z,1680.00
2018-09-22T06:33:11.765Z,1684.00
2018-09-22T06:34:11.769Z,1676.00
2018-09-22T06:35:11.805Z,1672.00
2018-09-22T06:36:11.758Z,1652.00
2018-09-22T06:37:11.758Z,1656.00
2018-09-22T06:38:11.739Z,1696.00
2018-09-22T06:39:11.727Z,1752.00
2018-09-22T06:40:11.732Z,1812.00
2018-09-22T06:41:11.742Z,1856.00
2018-09-22T06:42:11.734Z,1928.00
2018-09-22T06:43:11.717Z,1960.00
2018-09-22T06:44:11.711Z,1948.00
2018-09-22T06:45:11.732Z,1892.00
2018-09-22T06:46:11.743Z,1824.00
2018-09-22T06:47:11.717Z,1796.00
2018-09-22T06:48:11.716Z,1796.00
2018-09-22T06:49:11.694Z,1808.00
2018-09-22T06:50:11.690Z,1840.00
2018-09-22T06:51:11.689Z,1896.00
2018-09-22T06:52:11.703Z,1980.00
2018-09-22T06:53:11.672Z,2040.00
2018-09-22T06:54:11.670Z,2096.00
2018-09-22T06:55:11.683Z,2164.00
2018-09-22T06:56:11.670Z,2276.00
2018-09-22T06:57:11.671Z,2328.00
2018-09-22T06:58:11.663Z,2312.00
2018-09-22T06:59:11.674Z,2232.00
2018-09-22T07:00:11.683Z,2160.00
2018-09-22T07:01:11.664Z,2156.00
2018-09-22T07:02:11.712Z,2200.00
2018-09-22T07:03:11.732Z,2292.00
2018-09-22T07:04:11.646Z,2348.00
2018-09-22T07:05:11.618Z,2352.00
2018-09-22T07:06:11.705Z,2364.00
2018-09-22T07:07:11.640Z,2348.00
2018-09-22T07:08:11.614Z,2328.00
2018-09-22T07:09:11.636Z,2332.00
2018-09-22T07:10:11.619Z,2356.00
2018-09-22T07:11:11.614Z,2392.00
2018-09-22T07:12:11.613Z,2416.00
2018-09-22T07:13:11.699Z,2424.00
2018-09-22T07:14:11.644Z,2440.00
2018-09-22T07:15:11.697Z,2472.00
2018-09-22T07:16:12.699Z,2520.00
2018-09-22T07:17:11.603Z,2600.00
2018-09-22T07:18:11.600Z,2644.00
2018-09-22T07:19:11.580Z,2676.00
2018-09-22T07:20:11.733Z,2680.00
2018-09-22T07:21:11.576Z,2720.00
2018-09-22T07:22:11.584Z,2780.00
2018-09-22T07:23:11.558Z,2788.00
2018-09-22T07:24:11.568Z,2776.00
2018-09-22T07:25:11.583Z,2772.00
2018-09-22T07:26:11.577Z,2808.00
2018-09-22T07:27:11.565Z,2792.00
2018-09-22T07:28:11.556Z,2744.00
2018-09-22T07:29:11.550Z,2724.00
2018-09-22T07:30:11.548Z,2732.00
2018-09-22T07:31:11.550Z,2756.00
2018-09-22T07:32:11.541Z,2720.00
2018-09-22T07:33:11.551Z,2688.00
2018-09-22T07:34:11.551Z,2676.00
2018-09-22T07:35:11.537Z,2656.00
2018-09-22T07:36:11.535Z,2692.00
2018-09-22T07:37:11.547Z,2764.00
2018-09-22T07:38:11.540Z,2872.00
2018-09-22T07:39:11.520Z,3132.00
2018-09-22T07:40:11.529Z,3172.00
2018-09-22T07:41:11.531Z,3232.00
2018-09-22T07:42:11.523Z,2960.00
2018-09-22T07:43:11.501Z,3008.00
2018-09-22T07:44:11.504Z,2976.00
2018-09-22T07:45:11.519Z,2868.00
2018-09-22T07:46:11.498Z,2796.00
2018-09-22T07:47:11.492Z,2852.00
2018-09-22T07:48:11.503Z,2964.00
2018-09-22T07:49:11.509Z,3096.00
2018-09-22T07:50:11.485Z,3072.00
2018-09-22T07:51:11.485Z,3048.00
2018-09-22T07:52:11.501Z,3080.00
2018-09-22T07:53:11.487Z,3132.00
2018-09-22T07:54:11.466Z,2964.00
2018-09-22T07:55:11.477Z,2980.00
2018-09-22T07:56:11.476Z,3008.00
2018-09-22T07:57:12.209Z,2988.00
2018-09-22T07:58:11.480Z,2868.00
2018-09-22T07:59:11.462Z,2920.00
2018-09-22T08:00:11.495Z,2948.00
2018-09-22T08:01:11.457Z,3024.00
2018-09-22T08:02:11.477Z,3136.00
2018-09-22T08:03:11.470Z,3288.00
2018-09-22T08:04:11.472Z,3172.00
2018-09-22T08:05:11.462Z,3248.00
2018-09-22T08:06:11.467Z,3252.00
2018-09-22T08:07:11.471Z,3352.00
2018-09-22T08:08:11.461Z,3432.00
2018-09-22T08:09:11.455Z,3476.00
2018-09-22T08:10:11.456Z,3428.00
2018-09-22T08:11:11.445Z,3444.00
2018-09-22T08:12:11.458Z,3480.00
2018-09-22T08:13:11.433Z,3412.00
2018-09-22T08:14:11.443Z,3472.00
2018-09-22T08:15:11.438Z,3728.00
2018-09-22T08:16:12.178Z,3964.00
2018-09-22T08:17:11.448Z,4040.00
2018-09-22T08:18:11.446Z,3944.00
2018-09-22T08:19:11.443Z,3940.00
2018-09-22T08:20:11.444Z,3984.00
2018-09-22T08:21:11.433Z,4108.00
2018-09-22T08:22:11.441Z,4224.00
2018-09-22T08:23:11.433Z,4284.00
2018-09-22T08:24:11.431Z,4264.00
2018-09-22T08:25:11.459Z,4160.00
2018-09-22T08:26:11.424Z,4108.00
2018-09-22T08:27:12.165Z,4088.00
2018-09-22T08:28:11.431Z,4108.00
2018-09-22T08:29:11.428Z,4092.00
2018-09-22T08:30:11.429Z,4200.00
2018-09-22T08:31:11.432Z,4336.00
2018-09-22T08:32:11.409Z,4532.00
2018-09-22T08:33:11.427Z,4620.00
2018-09-22T08:34:11.426Z,4600.00
2018-09-22T08:35:11.422Z,4600.00
2018-09-22T08:36:11.472Z,4632.00
2018-09-22T08:37:11.531Z,4656.00
2018-09-22T08:38:11.419Z,4664.00
2018-09-22T08:39:11.446Z,4656.00
2018-09-22T08:40:11.417Z,4636.00
2018-09-22T08:41:11.426Z,4556.00
2018-09-22T08:42:11.411Z,4556.00
2018-09-22T08:43:11.406Z,4644.00
2018-09-22T08:44:11.412Z,4784.00
2018-09-22T08:45:12.185Z,4900.00
2018-09-22T08:46:11.419Z,4876.00
2018-09-22T08:47:11.420Z,4800.00
2018-09-22T08:48:14.194Z,4756.00
2018-09-22T08:49:11.405Z,4788.00
2018-09-22T08:50:11.475Z,4864.00
2018-09-22T08:51:11.483Z,4948.00
2018-09-22T08:52:11.425Z,4972.00
2018-09-22T08:53:11.409Z,4932.00
2018-09-22T08:54:11.419Z,4756.00
2018-09-22T08:55:11.406Z,4740.00
2018-09-22T08:56:11.399Z,4764.00
2018-09-22T08:57:11.452Z,4668.00
2018-09-22T08:58:11.414Z,4472.00
2018-09-22T08:59:11.422Z,4296.00
2018-09-22T09:00:11.424Z,4168.00
2018-09-22T09:01:11.415Z,4008.00
2018-09-22T09:02:11.423Z,3812.00
2018-09-22T09:03:11.414Z,3780.00
2018-09-22T09:04:11.426Z,3880.00
2018-09-22T09:05:11.427Z,4028.00
2018-09-22T09:06:11.408Z,3984.00
2018-09-22T09:07:12.201Z,3772.00
2018-09-22T09:08:11.408Z,3640.00
2018-09-22T09:09:11.404Z,3652.00
2018-09-22T09:10:11.402Z,3748.00
2018-09-22T09:11:11.420Z,3828.00
2018-09-22T09:12:11.421Z,3816.00
2018-09-22T09:13:11.412Z,3688.00
2018-09-22T09:14:11.486Z,3748.00
2018-09-22T09:15:11.418Z,3796.00
2018-09-22T09:16:11.430Z,3944.00
2018-09-22T09:17:11.495Z,3964.00
2018-09-22T09:18:11.429Z,3968.00
2018-09-22T09:19:11.416Z,3924.00
2018-09-22T09:20:11.422Z,3868.00
2018-09-22T09:21:11.413Z,3736.00
2018-09-22T09:22:12.205Z,3760.00
2018-09-22T09:23:11.417Z,3876.00
2018-09-22T09:24:12.217Z,3600.00
2018-09-22T09:25:12.016Z,3480.00
2018-09-22T09:26:11.438Z,3436.00
2018-09-22T09:27:11.427Z,3432.00
2018-09-22T09:28:11.433Z,3376.00
2018-09-22T09:29:11.434Z,3348.00
2018-09-22T09:30:12.212Z,3520.00
2018-09-22T09:31:11.422Z,3216.00
2018-09-22T09:32:11.416Z,3424.00
2018-09-22T09:33:11.417Z,3720.00
2018-09-22T09:34:11.427Z,3976.00
2018-09-22T09:35:11.424Z,4364.00
2018-09-22T09:36:11.480Z,4416.00
2018-09-22T09:37:11.427Z,4752.00
2018-09-22T09:38:11.426Z,4684.00
2018-09-22T09:39:11.411Z,4844.00
2018-09-22T09:40:11.443Z,5360.00
2018-09-22T09:41:11.437Z,5556.00
2018-09-22T09:42:11.415Z,5096.00
2018-09-22T09:43:11.553Z,4812.00
2018-09-22T09:44:12.216Z,5020.00
2018-09-22T09:45:11.445Z,4748.00
2018-09-22T09:46:11.436Z,4768.00
2018-09-22T09:47:11.417Z,3260.00
2018-09-22T09:48:12.219Z,2344.00
2018-09-22T09:49:11.441Z,2124.00
2018-09-22T09:50:11.423Z,2724.00
2018-09-22T09:51:11.427Z,3800.00
2018-09-22T09:52:11.440Z,3984.00
2018-09-22T09:53:11.458Z,2988.00
2018-09-22T09:54:11.412Z,2676.00
2018-09-22T09:55:11.431Z,2968.00
2018-09-22T09:56:11.423Z,4020.00
2018-09-22T09:57:11.419Z,4696.00
2018-09-22T09:58:11.431Z,4780.00
2018-09-22T09:59:11.425Z,4768.00
2018-09-22T10:00:11.425Z,4832.00
2018-09-22T10:01:11.422Z,5584.00
2018-09-22T10:02:11.426Z,5456.00
2018-09-22T10:03:11.435Z,5328.00
2018-09-22T10:04:11.416Z,5172.00
2018-09-22T10:05:11.428Z,3632.00
2018-09-22T10:06:11.436Z,3276.00
2018-09-22T10:07:11.435Z,3456.00
2018-09-22T10:08:12.243Z,3772.00
2018-09-22T10:09:11.421Z,3928.00
2018-09-22T10:10:11.434Z,4272.00
2018-09-22T10:11:11.435Z,3980.00
2018-09-22T10:12:11.430Z,3408.00
2018-09-22T10:13:11.430Z,2600.00
2018-09-22T10:14:11.435Z,2288.00
2018-09-22T10:15:11.433Z,3332.00
2018-09-22T10:16:11.434Z,5560.00
2018-09-22T10:17:11.424Z,6548.00
2018-09-22T10:18:11.444Z,6632.00
2018-09-22T10:19:11.430Z,6904.00
2018-09-22T10:20:11.438Z,6316.00
2018-09-22T10:21:11.445Z,5636.00
2018-09-22T10:22:11.440Z,5852.00
2018-09-22T10:23:11.438Z,6436.00
2018-09-22T10:24:11.447Z,6960.00
2018-09-22T10:25:11.422Z,6344.00
2018-09-22T10:26:11.436Z,4748.00
2018-09-22T10:27:11.421Z,4748.00
2018-09-22T10:28:11.471Z,5196.00
2018-09-22T10:29:12.257Z,5304.00
2018-09-22T10:30:11.424Z,5368.00
2018-09-22T10:31:11.442Z,5572.00
2018-09-22T10:32:11.420Z,5392.00
2018-09-22T10:33:11.447Z,5676.00
2018-09-22T10:34:11.443Z,5876.00
2018-09-22T10:35:11.439Z,6028.00
2018-09-22T10:36:11.451Z,6196.00
2018-09-22T10:37:11.448Z,6260.00
2018-09-22T10:38:11.445Z,7128.00
2018-09-22T10:39:11.456Z,7364.00
2018-09-22T10:40:11.426Z,7104.00
2018-09-22T10:41:11.453Z,6736.00
2018-09-22T10:42:11.457Z,6840.00
2018-09-22T10:43:11.454Z,7052.00
2018-09-22T10:44:11.467Z,7092.00
2018-09-22T10:45:11.452Z,6952.00
2018-09-22T10:46:11.457Z,6708.00
2018-09-22T10:47:11.446Z,6564.00
2018-09-22T10:48:11.447Z,6576.00
2018-09-22T10:49:11.442Z,6672.00
2018-09-22T10:50:11.467Z,6844.00
2018-09-22T10:51:11.466Z,6956.00
2018-09-22T10:52:11.471Z,7072.00
2018-09-22T10:53:11.467Z,7300.00
2018-09-22T10:54:11.445Z,7480.00
2018-09-22T10:55:11.468Z,7488.00
2018-09-22T10:56:11.471Z,7388.00
2018-09-22T10:57:11.459Z,7312.00
2018-09-22T10:58:11.461Z,7304.00
2018-09-22T10:59:11.465Z,7284.00
2018-09-22T11:00:11.455Z,7224.00
2018-09-22T11:01:11.495Z,7044.00
2018-09-22T11:02:11.470Z,7116.00
2018-09-22T11:03:11.524Z,7248.00
2018-09-22T11:04:11.473Z,7264.00
2018-09-22T11:05:11.477Z,7236.00
2018-09-22T11:06:12.274Z,7188.00
2018-09-22T11:07:11.469Z,7172.00
2018-09-22T11:08:11.490Z,7212.00
2018-09-22T11:09:11.485Z,7208.00
2018-09-22T11:10:11.513Z,7292.00
2018-09-22T11:11:11.497Z,7424.00
2018-09-22T11:12:11.496Z,7492.00
2018-09-22T11:13:11.489Z,7408.00
2018-09-22T11:14:11.509Z,7304.00
2018-09-22T11:15:11.505Z,7328.00
2018-09-22T11:16:11.507Z,7368.00
2018-09-22T11:17:11.519Z,7320.00
2018-09-22T11:18:11.498Z,7256.00
2018-09-22T11:19:11.507Z,7244.00
2018-09-22T11:20:11.498Z,7164.00
2018-09-22T11:21:11.517Z,7056.00
2018-09-22T11:22:11.521Z,6968.00
2018-09-22T11:23:11.503Z,6980.00
2018-09-22T11:24:11.515Z,7044.00
2018-09-22T11:25:11.524Z,7076.00
2018-09-22T11:26:11.530Z,6996.00
2018-09-22T11:27:11.525Z,6892.00
2018-09-22T11:28:11.533Z,6672.00
2018-09-22T11:29:11.545Z,6500.00
2018-09-22T11:30:11.541Z,6488.00
2018-09-22T11:31:11.539Z,6452.00
2018-09-22T11:32:11.554Z,6260.00
2018-09-22T11:33:11.543Z,6172.00
2018-09-22T11:34:11.551Z,6056.00
2018-09-22T11:35:12.279Z,5896.00
2018-09-22T11:36:11.557Z,5804.00
2018-09-22T11:37:11.551Z,5820.00
2018-09-22T11:38:11.579Z,5856.00
2018-09-22T11:39:11.552Z,5900.00
2018-09-22T11:40:11.563Z,6116.00
2018-09-22T11:41:11.565Z,6524.00
2018-09-22T11:42:11.588Z,6788.00
2018-09-22T11:43:11.555Z,6968.00
2018-09-22T11:44:11.562Z,7124.00
2018-09-22T11:45:11.556Z,7224.00
2018-09-22T11:46:11.584Z,7196.00
2018-09-22T11:47:11.573Z,6916.00
2018-09-22T11:48:11.557Z,6564.00
2018-09-22T11:49:11.596Z,5792.00
2018-09-22T11:50:12.311Z,4956.00
2018-09-22T11:51:11.561Z,4600.00
2018-09-22T11:52:12.317Z,5008.00
2018-09-22T11:53:12.302Z,4532.00
2018-09-22T11:54:11.585Z,3744.00
2018-09-22T11:55:11.584Z,3036.00
2018-09-22T11:56:11.577Z,2668.00
2018-09-22T11:57:11.582Z,2528.00
2018-09-22T11:58:11.565Z,2408.00
2018-09-22T11:59:11.597Z,2264.00
2018-09-22T12:00:11.594Z,1844.00
2018-09-22T12:01:11.579Z,1560.00
2018-09-22T12:02:11.579Z,1572.00
2018-09-22T12:03:11.597Z,1884.00
2018-09-22T12:04:11.607Z,2020.00
2018-09-22T12:05:11.594Z,2040.00
2018-09-22T12:06:11.596Z,2688.00
2018-09-22T12:07:11.597Z,2976.00
2018-09-22T12:08:11.595Z,2524.00
2018-09-22T12:09:11.581Z,2092.00
2018-09-22T12:10:11.594Z,1868.00
2018-09-22T12:11:11.584Z,1856.00
2018-09-22T12:12:11.606Z,1860.00
2018-09-22T12:13:11.609Z,1696.00
2018-09-22T12:14:11.646Z,1508.00
2018-09-22T12:15:11.611Z,1284.00
2018-09-22T12:16:11.606Z,952.00
2018-09-22T12:17:11.599Z,748.00
2018-09-22T12:18:11.592Z,732.00
2018-09-22T12:19:11.602Z,844.00
2018-09-22T12:20:11.585Z,960.00
2018-09-22T12:21:11.665Z,1028.00
2018-09-22T12:22:11.601Z,1052.00
2018-09-22T12:23:11.610Z,1064.00
2018-09-22T12:24:11.610Z,1340.00
2018-09-22T12:25:11.611Z,1660.00
2018-09-22T12:26:11.590Z,1844.00
2018-09-22T12:27:12.315Z,1920.00
2018-09-22T12:28:11.598Z,2052.00
2018-09-22T12:29:11.622Z,1988.00
2018-09-22T12:30:11.597Z,2212.00
2018-09-22T12:31:11.601Z,2244.00
2018-09-22T12:32:11.606Z,2280.00
2018-09-22T12:33:11.615Z,2380.00
2018-09-22T12:34:11.581Z,2708.00
2018-09-22T12:35:11.580Z,3536.00
2018-09-22T12:36:11.600Z,4488.00